sensor_id;sensor_type;location;lat;lon;timestamp;P1;durP1;ratioP1;P2;durP2;ratioP2
83513;SDS011;73447;53.262;10.424;2024-01-15T00:01:57;8.40;;;3.35;;
83513;SDS011;73447;53.262;10.424;2024-01-15T00:04:23;9.90;;;3.13;;
83513;SDS011;73447;53.262;10.424;2024-01-15T00:06:49;11.15;;;2.92;;
83513;SDS011;73447;53.262;10.424;2024-01-15T00:09:14;7.63;;;2.60;;
83513;SDS011;73447;53.262;10.424;2024-01-15T00:11:40;5.95;;;2.25;;
83513;SDS011;73447;53.262;10.424;2024-01-15T00:14:06;8.45;;;2.58;;
83513;SDS011;73447;53.262;10.424;2024-01-15T00:16:31;11.40;;;2.97;;
83513;SDS011;73447;53.262;10.424;2024-01-15T00:18:57;6.68;;;2.65;;
83513;SDS011;73447;53.262;10.424;2024-01-15T00:21:22;7.57;;;3.55;;
83513;SDS011;73447;53.262;10.424;2024-01-15T00:23:48;5.03;;;2.72;;
83513;SDS011;73447;53.262;10.424;2024-01-15T00:26:13;13.05;;;3.22;;
83513;SDS011;73447;53.262;10.424;2024-01-15T00:28:39;6.68;;;3.28;;
83513;SDS011;73447;53.262;10.424;2024-01-15T00:31:04;10.45;;;2.90;;
83513;SDS011;73447;53.262;10.424;2024-01-15T00:33:30;7.50;;;2.95;;
83513;SDS011;73447;53.262;10.424;2024-01-15T00:35:55;10.35;;;2.90;;
83513;SDS011;73447;53.262;10.424;2024-01-15T00:38:21;7.13;;;2.72;;
83513;SDS011;73447;53.262;10.424;2024-01-15T00:40:46;8.48;;;2.70;;
83513;SDS011;73447;53.262;10.424;2024-01-15T00:43:12;13.25;;;3.25;;
83513;SDS011;73447;53.262;10.424;2024-01-15T00:45:37;9.80;;;3.25;;
83513;SDS011;73447;53.262;10.424;2024-01-15T00:48:03;8.32;;;3.17;;
83513;SDS011;73447;53.262;10.424;2024-01-15T00:50:29;12.02;;;5.22;;
83513;SDS011;73447;53.262;10.424;2024-01-15T00:52:54;7.45;;;2.83;;
83513;SDS011;73447;53.262;10.424;2024-01-15T00:55:19;5.72;;;3.10;;
83513;SDS011;73447;53.262;10.424;2024-01-15T00:57:45;11.50;;;3.22;;
83513;SDS011;73447;53.262;10.424;2024-01-15T01:00:10;12.43;;;3.70;;
83513;SDS011;73447;53.262;10.424;2024-01-15T01:02:36;12.77;;;2.72;;
83513;SDS011;73447;53.262;10.424;2024-01-15T01:05:02;7.95;;;2.92;;
83513;SDS011;73447;53.262;10.424;2024-01-15T01:07:28;7.47;;;2.42;;
83513;SDS011;73447;53.262;10.424;2024-01-15T01:09:54;10.02;;;2.65;;
83513;SDS011;73447;53.262;10.424;2024-01-15T01:12:20;9.63;;;2.75;;
83513;SDS011;73447;53.262;10.424;2024-01-15T01:14:46;8.90;;;2.50;;
83513;SDS011;73447;53.262;10.424;2024-01-15T01:17:11;5.88;;;2.70;;
83513;SDS011;73447;53.262;10.424;2024-01-15T01:19:36;11.30;;;2.50;;
83513;SDS011;73447;53.262;10.424;2024-01-15T01:22:02;15.00;;;2.78;;
83513;SDS011;73447;53.262;10.424;2024-01-15T01:24:27;11.77;;;3.33;;
83513;SDS011;73447;53.262;10.424;2024-01-15T01:26:53;8.38;;;2.17;;
83513;SDS011;73447;53.262;10.424;2024-01-15T01:29:18;12.68;;;3.03;;
83513;SDS011;73447;53.262;10.424;2024-01-15T01:31:44;9.05;;;2.58;;
83513;SDS011;73447;53.262;10.424;2024-01-15T01:34:10;8.63;;;2.30;;
83513;SDS011;73447;53.262;10.424;2024-01-15T01:36:35;9.32;;;2.58;;
83513;SDS011;73447;53.262;10.424;2024-01-15T01:39:01;12.52;;;2.30;;
83513;SDS011;73447;53.262;10.424;2024-01-15T01:41:26;6.10;;;2.25;;
83513;SDS011;73447;53.262;10.424;2024-01-15T01:43:52;10.43;;;2.53;;
83513;SDS011;73447;53.262;10.424;2024-01-15T01:46:17;8.68;;;2.05;;
83513;SDS011;73447;53.262;10.424;2024-01-15T01:48:42;12.07;;;2.63;;
83513;SDS011;73447;53.262;10.424;2024-01-15T01:51:08;5.90;;;2.13;;
83513;SDS011;73447;53.262;10.424;2024-01-15T01:53:35;9.35;;;2.47;;
83513;SDS011;73447;53.262;10.424;2024-01-15T01:56:02;7.95;;;2.20;;
83513;SDS011;73447;53.262;10.424;2024-01-15T01:58:28;8.05;;;2.20;;
83513;SDS011;73447;53.262;10.424;2024-01-15T02:00:55;8.75;;;2.63;;
83513;SDS011;73447;53.262;10.424;2024-01-15T02:03:22;5.68;;;2.63;;
83513;SDS011;73447;53.262;10.424;2024-01-15T02:05:47;9.93;;;2.78;;
83513;SDS011;73447;53.262;10.424;2024-01-15T02:08:14;5.90;;;2.30;;
83513;SDS011;73447;53.262;10.424;2024-01-15T02:10:40;6.00;;;2.90;;
83513;SDS011;73447;53.262;10.424;2024-01-15T02:13:05;15.30;;;3.70;;
83513;SDS011;73447;53.262;10.424;2024-01-15T02:15:31;8.45;;;3.13;;
83513;SDS011;73447;53.262;10.424;2024-01-15T02:18:00;6.22;;;2.67;;
83513;SDS011;73447;53.262;10.424;2024-01-15T02:20:26;11.65;;;2.63;;
83513;SDS011;73447;53.262;10.424;2024-01-15T02:22:52;7.18;;;2.28;;
83513;SDS011;73447;53.262;10.424;2024-01-15T02:25:18;7.55;;;2.50;;
83513;SDS011;73447;53.262;10.424;2024-01-15T02:27:44;7.82;;;2.42;;
83513;SDS011;73447;53.262;10.424;2024-01-15T02:30:11;4.55;;;1.90;;
83513;SDS011;73447;53.262;10.424;2024-01-15T02:32:37;9.13;;;2.88;;
83513;SDS011;73447;53.262;10.424;2024-01-15T02:35:03;6.30;;;2.13;;
83513;SDS011;73447;53.262;10.424;2024-01-15T02:37:29;5.07;;;2.42;;
83513;SDS011;73447;53.262;10.424;2024-01-15T02:39:54;4.93;;;1.70;;
83513;SDS011;73447;53.262;10.424;2024-01-15T02:42:20;4.88;;;2.13;;
83513;SDS011;73447;53.262;10.424;2024-01-15T02:44:45;4.30;;;1.70;;
83513;SDS011;73447;53.262;10.424;2024-01-15T02:47:11;5.85;;;2.25;;
83513;SDS011;73447;53.262;10.424;2024-01-15T02:49:36;6.88;;;2.42;;
83513;SDS011;73447;53.262;10.424;2024-01-15T02:52:01;7.57;;;3.40;;
83513;SDS011;73447;53.262;10.424;2024-01-15T02:54:27;5.85;;;3.28;;
83513;SDS011;73447;53.262;10.424;2024-01-15T02:56:52;8.88;;;3.22;;
83513;SDS011;73447;53.262;10.424;2024-01-15T02:59:18;11.45;;;3.33;;
83513;SDS011;73447;53.262;10.424;2024-01-15T03:01:43;11.85;;;3.38;;
83513;SDS011;73447;53.262;10.424;2024-01-15T03:04:09;9.43;;;3.17;;
83513;SDS011;73447;53.262;10.424;2024-01-15T03:06:34;7.20;;;2.85;;
83513;SDS011;73447;53.262;10.424;2024-01-15T03:08:59;8.80;;;2.90;;
83513;SDS011;73447;53.262;10.424;2024-01-15T03:11:25;5.47;;;2.28;;
83513;SDS011;73447;53.262;10.424;2024-01-15T03:13:50;5.90;;;3.65;;
83513;SDS011;73447;53.262;10.424;2024-01-15T03:16:16;7.35;;;2.83;;
83513;SDS011;73447;53.262;10.424;2024-01-15T03:18:45;8.82;;;2.80;;
83513;SDS011;73447;53.262;10.424;2024-01-15T03:21:11;6.82;;;2.80;;
83513;SDS011;73447;53.262;10.424;2024-01-15T03:23:36;6.20;;;2.85;;
83513;SDS011;73447;53.262;10.424;2024-01-15T03:26:01;9.07;;;2.90;;
83513;SDS011;73447;53.262;10.424;2024-01-15T03:28:27;10.93;;;4.85;;
83513;SDS011;73447;53.262;10.424;2024-01-15T03:30:55;9.07;;;2.80;;
83513;SDS011;73447;53.262;10.424;2024-01-15T03:33:20;5.60;;;2.60;;
83513;SDS011;73447;53.262;10.424;2024-01-15T03:35:46;5.03;;;2.63;;
83513;SDS011;73447;53.262;10.424;2024-01-15T03:38:11;7.15;;;2.80;;
83513;SDS011;73447;53.262;10.424;2024-01-15T03:40:36;7.53;;;2.70;;
83513;SDS011;73447;53.262;10.424;2024-01-15T03:43:02;8.20;;;3.40;;
83513;SDS011;73447;53.262;10.424;2024-01-15T03:45:27;7.55;;;2.30;;
83513;SDS011;73447;53.262;10.424;2024-01-15T03:47:53;7.82;;;2.45;;
83513;SDS011;73447;53.262;10.424;2024-01-15T03:50:18;6.80;;;2.45;;
83513;SDS011;73447;53.262;10.424;2024-01-15T03:52:43;8.73;;;2.70;;
83513;SDS011;73447;53.262;10.424;2024-01-15T03:55:09;8.10;;;2.35;;
83513;SDS011;73447;53.262;10.424;2024-01-15T03:57:34;7.50;;;3.38;;
83513;SDS011;73447;53.262;10.424;2024-01-15T03:59:59;9.18;;;2.50;;
83513;SDS011;73447;53.262;10.424;2024-01-15T04:02:25;5.03;;;2.22;;
83513;SDS011;73447;53.262;10.424;2024-01-15T04:04:50;7.35;;;3.40;;
83513;SDS011;73447;53.262;10.424;2024-01-15T04:07:15;5.97;;;2.17;;
83513;SDS011;73447;53.262;10.424;2024-01-15T04:09:41;8.38;;;2.40;;
83513;SDS011;73447;53.262;10.424;2024-01-15T04:12:06;4.70;;;2.08;;
83513;SDS011;73447;53.262;10.424;2024-01-15T04:14:32;7.88;;;2.33;;
83513;SDS011;73447;53.262;10.424;2024-01-15T04:16:57;7.35;;;2.42;;
83513;SDS011;73447;53.262;10.424;2024-01-15T04:19:23;6.10;;;2.22;;
83513;SDS011;73447;53.262;10.424;2024-01-15T04:21:48;7.00;;;2.10;;
83513;SDS011;73447;53.262;10.424;2024-01-15T04:24:13;7.43;;;2.47;;
83513;SDS011;73447;53.262;10.424;2024-01-15T04:26:39;8.60;;;2.35;;
83513;SDS011;73447;53.262;10.424;2024-01-15T04:29:04;11.95;;;2.40;;
83513;SDS011;73447;53.262;10.424;2024-01-15T04:31:30;9.20;;;2.30;;
83513;SDS011;73447;53.262;10.424;2024-01-15T04:33:55;8.57;;;2.22;;
83513;SDS011;73447;53.262;10.424;2024-01-15T04:36:20;7.97;;;2.67;;
83513;SDS011;73447;53.262;10.424;2024-01-15T04:38:46;5.13;;;2.08;;
83513;SDS011;73447;53.262;10.424;2024-01-15T04:41:12;13.07;;;2.65;;
83513;SDS011;73447;53.262;10.424;2024-01-15T04:43:38;16.95;;;3.30;;
83513;SDS011;73447;53.262;10.424;2024-01-15T04:46:05;10.90;;;2.15;;
83513;SDS011;73447;53.262;10.424;2024-01-15T04:48:31;14.68;;;2.92;;
83513;SDS011;73447;53.262;10.424;2024-01-15T04:50:56;8.57;;;2.80;;
83513;SDS011;73447;53.262;10.424;2024-01-15T04:53:22;9.15;;;2.25;;
83513;SDS011;73447;53.262;10.424;2024-01-15T04:55:47;6.72;;;2.60;;
83513;SDS011;73447;53.262;10.424;2024-01-15T04:58:13;14.65;;;2.10;;
83513;SDS011;73447;53.262;10.424;2024-01-15T05:00:38;10.88;;;2.55;;
83513;SDS011;73447;53.262;10.424;2024-01-15T05:03:04;14.85;;;3.08;;
83513;SDS011;73447;53.262;10.424;2024-01-15T05:05:29;14.48;;;2.70;;
83513;SDS011;73447;53.262;10.424;2024-01-15T05:07:55;15.48;;;2.38;;
83513;SDS011;73447;53.262;10.424;2024-01-15T05:10:20;10.73;;;2.70;;
83513;SDS011;73447;53.262;10.424;2024-01-15T05:12:46;12.25;;;2.85;;
83513;SDS011;73447;53.262;10.424;2024-01-15T05:15:11;9.07;;;2.10;;
83513;SDS011;73447;53.262;10.424;2024-01-15T05:17:36;11.98;;;3.60;;
83513;SDS011;73447;53.262;10.424;2024-01-15T05:20:02;8.90;;;2.80;;
83513;SDS011;73447;53.262;10.424;2024-01-15T05:22:28;10.50;;;2.67;;
83513;SDS011;73447;53.262;10.424;2024-01-15T05:24:53;12.15;;;3.20;;
83513;SDS011;73447;53.262;10.424;2024-01-15T05:27:19;11.18;;;3.55;;
83513;SDS011;73447;53.262;10.424;2024-01-15T05:29:44;15.32;;;3.45;;
83513;SDS011;73447;53.262;10.424;2024-01-15T05:32:09;12.15;;;4.38;;
83513;SDS011;73447;53.262;10.424;2024-01-15T05:34:35;15.77;;;4.43;;
83513;SDS011;73447;53.262;10.424;2024-01-15T05:37:00;14.75;;;4.32;;
83513;SDS011;73447;53.262;10.424;2024-01-15T05:39:26;16.17;;;4.63;;
83513;SDS011;73447;53.262;10.424;2024-01-15T05:41:51;16.70;;;3.35;;
83513;SDS011;73447;53.262;10.424;2024-01-15T05:44:16;14.45;;;4.03;;
83513;SDS011;73447;53.262;10.424;2024-01-15T05:46:42;15.75;;;4.00;;
83513;SDS011;73447;53.262;10.424;2024-01-15T05:49:08;9.85;;;3.20;;
83513;SDS011;73447;53.262;10.424;2024-01-15T05:51:33;12.60;;;3.42;;
83513;SDS011;73447;53.262;10.424;2024-01-15T05:53:58;19.05;;;4.43;;
83513;SDS011;73447;53.262;10.424;2024-01-15T05:56:24;13.80;;;4.40;;
83513;SDS011;73447;53.262;10.424;2024-01-15T05:58:49;8.55;;;3.50;;
83513;SDS011;73447;53.262;10.424;2024-01-15T06:01:15;16.80;;;4.53;;
83513;SDS011;73447;53.262;10.424;2024-01-15T06:03:40;11.93;;;3.83;;
83513;SDS011;73447;53.262;10.424;2024-01-15T06:06:06;12.18;;;4.07;;
83513;SDS011;73447;53.262;10.424;2024-01-15T06:08:33;11.10;;;3.53;;
83513;SDS011;73447;53.262;10.424;2024-01-15T06:10:59;9.50;;;3.55;;
83513;SDS011;73447;53.262;10.424;2024-01-15T06:13:24;10.90;;;3.40;;
83513;SDS011;73447;53.262;10.424;2024-01-15T06:15:50;10.30;;;3.53;;
83513;SDS011;73447;53.262;10.424;2024-01-15T06:18:16;7.50;;;3.30;;
83513;SDS011;73447;53.262;10.424;2024-01-15T06:20:41;12.50;;;3.92;;
83513;SDS011;73447;53.262;10.424;2024-01-15T06:23:07;11.95;;;4.05;;
83513;SDS011;73447;53.262;10.424;2024-01-15T06:25:33;11.90;;;3.80;;
83513;SDS011;73447;53.262;10.424;2024-01-15T06:27:58;11.50;;;3.90;;
83513;SDS011;73447;53.262;10.424;2024-01-15T06:30:23;11.68;;;3.88;;
83513;SDS011;73447;53.262;10.424;2024-01-15T06:32:49;13.50;;;4.88;;
83513;SDS011;73447;53.262;10.424;2024-01-15T06:35:15;10.80;;;3.80;;
83513;SDS011;73447;53.262;10.424;2024-01-15T06:37:40;15.45;;;4.00;;
83513;SDS011;73447;53.262;10.424;2024-01-15T06:40:06;14.93;;;4.40;;
83513;SDS011;73447;53.262;10.424;2024-01-15T06:42:32;12.05;;;3.55;;
83513;SDS011;73447;53.262;10.424;2024-01-15T06:44:57;13.35;;;3.65;;
83513;SDS011;73447;53.262;10.424;2024-01-15T06:47:22;7.68;;;3.08;;
83513;SDS011;73447;53.262;10.424;2024-01-15T06:49:48;10.07;;;3.50;;
83513;SDS011;73447;53.262;10.424;2024-01-15T06:52:15;10.20;;;3.17;;
83513;SDS011;73447;53.262;10.424;2024-01-15T06:54:41;11.57;;;3.00;;
83513;SDS011;73447;53.262;10.424;2024-01-15T06:57:06;15.07;;;4.50;;
83513;SDS011;73447;53.262;10.424;2024-01-15T06:59:32;7.63;;;2.33;;
83513;SDS011;73447;53.262;10.424;2024-01-15T07:01:57;6.28;;;2.33;;
83513;SDS011;73447;53.262;10.424;2024-01-15T07:04:24;9.63;;;2.65;;
83513;SDS011;73447;53.262;10.424;2024-01-15T07:06:49;9.50;;;3.10;;
83513;SDS011;73447;53.262;10.424;2024-01-15T07:09:15;10.65;;;2.22;;
83513;SDS011;73447;53.262;10.424;2024-01-15T07:11:44;14.45;;;3.22;;
83513;SDS011;73447;53.262;10.424;2024-01-15T07:14:11;9.05;;;2.55;;
83513;SDS011;73447;53.262;10.424;2024-01-15T07:16:40;8.73;;;2.60;;
83513;SDS011;73447;53.262;10.424;2024-01-15T07:19:05;10.43;;;2.05;;
83513;SDS011;73447;53.262;10.424;2024-01-15T07:21:31;9.65;;;2.58;;
83513;SDS011;73447;53.262;10.424;2024-01-15T07:23:56;8.38;;;2.78;;
83513;SDS011;73447;53.262;10.424;2024-01-15T07:26:22;10.60;;;2.88;;
83513;SDS011;73447;53.262;10.424;2024-01-15T07:28:47;9.43;;;2.42;;
83513;SDS011;73447;53.262;10.424;2024-01-15T07:31:13;7.15;;;2.30;;
83513;SDS011;73447;53.262;10.424;2024-01-15T07:33:40;8.25;;;2.40;;
83513;SDS011;73447;53.262;10.424;2024-01-15T07:36:06;9.07;;;2.63;;
83513;SDS011;73447;53.262;10.424;2024-01-15T07:38:31;10.73;;;2.88;;
83513;SDS011;73447;53.262;10.424;2024-01-15T07:40:57;9.27;;;2.50;;
83513;SDS011;73447;53.262;10.424;2024-01-15T07:43:22;7.82;;;2.53;;
83513;SDS011;73447;53.262;10.424;2024-01-15T07:45:47;5.88;;;2.35;;
83513;SDS011;73447;53.262;10.424;2024-01-15T07:48:13;5.53;;;2.40;;
83513;SDS011;73447;53.262;10.424;2024-01-15T07:50:39;7.90;;;2.40;;
83513;SDS011;73447;53.262;10.424;2024-01-15T07:53:04;5.97;;;2.70;;
83513;SDS011;73447;53.262;10.424;2024-01-15T07:55:30;6.38;;;2.13;;
83513;SDS011;73447;53.262;10.424;2024-01-15T07:57:55;5.03;;;2.17;;
83513;SDS011;73447;53.262;10.424;2024-01-15T08:00:24;8.77;;;2.50;;
83513;SDS011;73447;53.262;10.424;2024-01-15T08:02:49;8.93;;;3.28;;
83513;SDS011;73447;53.262;10.424;2024-01-15T08:05:16;10.75;;;2.88;;
83513;SDS011;73447;53.262;10.424;2024-01-15T08:07:41;9.18;;;2.00;;
83513;SDS011;73447;53.262;10.424;2024-01-15T08:10:07;5.10;;;2.00;;
83513;SDS011;73447;53.262;10.424;2024-01-15T08:12:32;6.80;;;1.95;;
83513;SDS011;73447;53.262;10.424;2024-01-15T08:14:58;4.72;;;1.95;;
83513;SDS011;73447;53.262;10.424;2024-01-15T08:17:23;5.60;;;1.90;;
83513;SDS011;73447;53.262;10.424;2024-01-15T08:19:53;4.72;;;2.15;;
83513;SDS011;73447;53.262;10.424;2024-01-15T08:22:18;6.30;;;2.47;;
83513;SDS011;73447;53.262;10.424;2024-01-15T08:24:44;3.28;;;1.35;;
83513;SDS011;73447;53.262;10.424;2024-01-15T08:27:09;8.88;;;1.85;;
83513;SDS011;73447;53.262;10.424;2024-01-15T08:29:35;5.47;;;1.42;;
83513;SDS011;73447;53.262;10.424;2024-01-15T08:32:00;2.08;;;0.90;;
83513;SDS011;73447;53.262;10.424;2024-01-15T08:34:26;3.60;;;1.58;;
83513;SDS011;73447;53.262;10.424;2024-01-15T08:36:51;2.95;;;1.20;;
83513;SDS011;73447;53.262;10.424;2024-01-15T08:39:17;2.92;;;1.02;;
83513;SDS011;73447;53.262;10.424;2024-01-15T08:41:44;4.22;;;1.00;;
83513;SDS011;73447;53.262;10.424;2024-01-15T08:44:11;2.58;;;1.10;;
83513;SDS011;73447;53.262;10.424;2024-01-15T08:46:37;2.42;;;1.13;;
83513;SDS011;73447;53.262;10.424;2024-01-15T08:49:02;3.40;;;1.20;;
83513;SDS011;73447;53.262;10.424;2024-01-15T08:51:28;2.97;;;0.98;;
83513;SDS011;73447;53.262;10.424;2024-01-15T08:53:54;2.08;;;0.98;;
83513;SDS011;73447;53.262;10.424;2024-01-15T08:56:19;2.55;;;0.88;;
83513;SDS011;73447;53.262;10.424;2024-01-15T08:58:45;1.58;;;0.90;;
83513;SDS011;73447;53.262;10.424;2024-01-15T09:01:11;0.65;;;0.55;;
83513;SDS011;73447;53.262;10.424;2024-01-15T09:03:36;1.83;;;1.20;;
83513;SDS011;73447;53.262;10.424;2024-01-15T09:06:02;1.65;;;1.02;;
83513;SDS011;73447;53.262;10.424;2024-01-15T09:08:28;1.08;;;0.98;;
83513;SDS011;73447;53.262;10.424;2024-01-15T09:10:53;2.40;;;1.23;;
83513;SDS011;73447;53.262;10.424;2024-01-15T09:13:18;1.13;;;1.02;;
83513;SDS011;73447;53.262;10.424;2024-01-15T09:15:44;3.25;;;1.98;;
83513;SDS011;73447;53.262;10.424;2024-01-15T09:18:09;3.20;;;1.27;;
83513;SDS011;73447;53.262;10.424;2024-01-15T09:20:35;3.42;;;1.50;;
83513;SDS011;73447;53.262;10.424;2024-01-15T09:23:00;2.88;;;1.10;;
83513;SDS011;73447;53.262;10.424;2024-01-15T09:25:26;1.92;;;1.17;;
83513;SDS011;73447;53.262;10.424;2024-01-15T09:27:51;2.50;;;1.45;;
83513;SDS011;73447;53.262;10.424;2024-01-15T09:30:17;3.28;;;1.15;;
83513;SDS011;73447;53.262;10.424;2024-01-15T09:32:42;3.70;;;1.65;;
83513;SDS011;73447;53.262;10.424;2024-01-15T09:35:08;2.97;;;1.45;;
83513;SDS011;73447;53.262;10.424;2024-01-15T09:37:34;1.80;;;1.17;;
83513;SDS011;73447;53.262;10.424;2024-01-15T09:40:00;3.53;;;1.15;;
83513;SDS011;73447;53.262;10.424;2024-01-15T09:42:25;3.80;;;0.98;;
83513;SDS011;73447;53.262;10.424;2024-01-15T09:44:51;3.03;;;1.15;;
83513;SDS011;73447;53.262;10.424;2024-01-15T09:47:17;1.42;;;1.20;;
83513;SDS011;73447;53.262;10.424;2024-01-15T09:49:46;4.15;;;0.90;;
83513;SDS011;73447;53.262;10.424;2024-01-15T09:52:12;2.83;;;1.00;;
83513;SDS011;73447;53.262;10.424;2024-01-15T09:54:40;1.77;;;1.10;;
83513;SDS011;73447;53.262;10.424;2024-01-15T09:57:09;3.38;;;1.00;;
83513;SDS011;73447;53.262;10.424;2024-01-15T09:59:34;2.40;;;1.33;;
83513;SDS011;73447;53.262;10.424;2024-01-15T10:02:02;3.25;;;1.20;;
83513;SDS011;73447;53.262;10.424;2024-01-15T10:04:28;2.25;;;0.93;;
83513;SDS011;73447;53.262;10.424;2024-01-15T10:06:53;1.60;;;1.10;;
83513;SDS011;73447;53.262;10.424;2024-01-15T10:09:21;3.25;;;1.30;;
83513;SDS011;73447;53.262;10.424;2024-01-15T10:11:46;2.67;;;1.10;;
83513;SDS011;73447;53.262;10.424;2024-01-15T10:14:12;3.70;;;1.60;;
83513;SDS011;73447;53.262;10.424;2024-01-15T10:16:38;1.90;;;1.00;;
83513;SDS011;73447;53.262;10.424;2024-01-15T10:19:04;1.45;;;1.20;;
83513;SDS011;73447;53.262;10.424;2024-01-15T10:21:31;1.73;;;1.15;;
83513;SDS011;73447;53.262;10.424;2024-01-15T10:23:59;1.15;;;0.93;;
83513;SDS011;73447;53.262;10.424;2024-01-15T10:26:26;4.78;;;1.45;;
83513;SDS011;73447;53.262;10.424;2024-01-15T10:28:51;3.53;;;1.30;;
83513;SDS011;73447;53.262;10.424;2024-01-15T10:31:17;2.20;;;1.35;;
83513;SDS011;73447;53.262;10.424;2024-01-15T10:33:44;4.38;;;1.50;;
83513;SDS011;73447;53.262;10.424;2024-01-15T10:36:09;2.63;;;1.23;;
83513;SDS011;73447;53.262;10.424;2024-01-15T10:38:36;4.63;;;1.90;;
83513;SDS011;73447;53.262;10.424;2024-01-15T10:41:02;4.45;;;1.80;;
83513;SDS011;73447;53.262;10.424;2024-01-15T10:43:27;2.15;;;1.85;;
83513;SDS011;73447;53.262;10.424;2024-01-15T10:45:52;4.38;;;2.08;;
83513;SDS011;73447;53.262;10.424;2024-01-15T10:48:18;2.22;;;1.52;;
83513;SDS011;73447;53.262;10.424;2024-01-15T10:50:45;2.90;;;1.77;;
83513;SDS011;73447;53.262;10.424;2024-01-15T10:53:12;4.72;;;1.75;;
83513;SDS011;73447;53.262;10.424;2024-01-15T10:55:39;4.55;;;2.00;;
83513;SDS011;73447;53.262;10.424;2024-01-15T10:58:06;4.75;;;2.28;;
83513;SDS011;73447;53.262;10.424;2024-01-15T11:00:35;5.85;;;2.35;;
83513;SDS011;73447;53.262;10.424;2024-01-15T11:03:05;3.10;;;2.20;;
83513;SDS011;73447;53.262;10.424;2024-01-15T11:05:38;4.43;;;2.47;;
83513;SDS011;73447;53.262;10.424;2024-01-15T11:08:06;3.08;;;2.13;;
83513;SDS011;73447;53.262;10.424;2024-01-15T11:10:40;5.75;;;2.50;;
83513;SDS011;73447;53.262;10.424;2024-01-15T11:23:42;4.03;;;2.00;;
83513;SDS011;73447;53.262;10.424;2024-01-15T11:28:55;2.28;;;1.75;;
83513;SDS011;73447;53.262;10.424;2024-01-15T11:31:28;3.63;;;1.95;;
83513;SDS011;73447;53.262;10.424;2024-01-15T11:34:08;4.28;;;2.30;;
83513;SDS011;73447;53.262;10.424;2024-01-15T11:41:59;2.88;;;1.77;;
83513;SDS011;73447;53.262;10.424;2024-01-15T11:44:29;3.65;;;2.60;;
83513;SDS011;73447;53.262;10.424;2024-01-15T11:52:18;3.35;;;2.38;;
83513;SDS011;73447;53.262;10.424;2024-01-15T11:55:26;4.43;;;2.72;;
83513;SDS011;73447;53.262;10.424;2024-01-15T12:00:10;6.45;;;2.60;;
83513;SDS011;73447;53.262;10.424;2024-01-15T12:02:38;7.53;;;3.08;;
83513;SDS011;73447;53.262;10.424;2024-01-15T12:05:04;5.10;;;3.00;;
83513;SDS011;73447;53.262;10.424;2024-01-15T12:07:30;6.03;;;2.80;;
83513;SDS011;73447;53.262;10.424;2024-01-15T12:09:55;6.63;;;3.20;;
83513;SDS011;73447;53.262;10.424;2024-01-15T12:12:24;5.45;;;2.65;;
83513;SDS011;73447;53.262;10.424;2024-01-15T12:15:12;5.93;;;2.65;;
83513;SDS011;73447;53.262;10.424;2024-01-15T12:17:38;3.72;;;2.20;;
83513;SDS011;73447;53.262;10.424;2024-01-15T12:20:04;4.63;;;2.70;;
83513;SDS011;73447;53.262;10.424;2024-01-15T12:22:30;4.35;;;2.33;;
83513;SDS011;73447;53.262;10.424;2024-01-15T12:24:55;3.13;;;2.00;;
83513;SDS011;73447;53.262;10.424;2024-01-15T12:27:20;3.42;;;1.95;;
83513;SDS011;73447;53.262;10.424;2024-01-15T12:29:46;2.55;;;1.58;;
83513;SDS011;73447;53.262;10.424;2024-01-15T12:32:12;2.72;;;1.92;;
83513;SDS011;73447;53.262;10.424;2024-01-15T12:34:37;3.05;;;1.92;;
83513;SDS011;73447;53.262;10.424;2024-01-15T12:37:03;3.22;;;2.00;;
83513;SDS011;73447;53.262;10.424;2024-01-15T12:39:29;3.78;;;1.73;;
83513;SDS011;73447;53.262;10.424;2024-01-15T12:41:54;2.63;;;1.67;;
83513;SDS011;73447;53.262;10.424;2024-01-15T12:44:20;1.45;;;1.35;;
83513;SDS011;73447;53.262;10.424;2024-01-15T12:46:45;2.40;;;1.42;;
83513;SDS011;73447;53.262;10.424;2024-01-15T12:49:12;1.58;;;1.48;;
83513;SDS011;73447;53.262;10.424;2024-01-15T12:51:38;1.80;;;1.35;;
83513;SDS011;73447;53.262;10.424;2024-01-15T12:54:03;1.55;;;1.45;;
83513;SDS011;73447;53.262;10.424;2024-01-15T12:56:29;3.08;;;1.35;;
83513;SDS011;73447;53.262;10.424;2024-01-15T12:58:54;2.53;;;1.30;;
83513;SDS011;73447;53.262;10.424;2024-01-15T13:01:20;2.72;;;1.60;;
83513;SDS011;73447;53.262;10.424;2024-01-15T13:03:46;1.95;;;1.00;;
83513;SDS011;73447;53.262;10.424;2024-01-15T13:06:12;2.33;;;1.30;;
83513;SDS011;73447;53.262;10.424;2024-01-15T13:08:38;2.13;;;1.30;;
83513;SDS011;73447;53.262;10.424;2024-01-15T13:11:03;2.20;;;1.20;;
83513;SDS011;73447;53.262;10.424;2024-01-15T13:13:29;1.80;;;1.30;;
83513;SDS011;73447;53.262;10.424;2024-01-15T13:15:55;2.60;;;1.30;;
83513;SDS011;73447;53.262;10.424;2024-01-15T13:18:21;2.08;;;0.77;;
83513;SDS011;73447;53.262;10.424;2024-01-15T13:20:46;3.03;;;0.98;;
83513;SDS011;73447;53.262;10.424;2024-01-15T13:23:12;1.83;;;1.40;;
83513;SDS011;73447;53.262;10.424;2024-01-15T13:25:38;4.40;;;0.90;;
83513;SDS011;73447;53.262;10.424;2024-01-15T13:28:07;2.45;;;1.10;;
83513;SDS011;73447;53.262;10.424;2024-01-15T13:30:33;2.45;;;1.08;;
83513;SDS011;73447;53.262;10.424;2024-01-15T13:32:58;1.67;;;1.20;;
83513;SDS011;73447;53.262;10.424;2024-01-15T13:35:29;2.58;;;1.50;;
83513;SDS011;73447;53.262;10.424;2024-01-15T13:37:54;2.60;;;1.60;;
83513;SDS011;73447;53.262;10.424;2024-01-15T13:40:19;1.75;;;1.05;;
83513;SDS011;73447;53.262;10.424;2024-01-15T13:42:45;1.35;;;0.93;;
83513;SDS011;73447;53.262;10.424;2024-01-15T13:45:11;1.35;;;1.20;;
83513;SDS011;73447;53.262;10.424;2024-01-15T13:47:39;3.08;;;1.17;;
83513;SDS011;73447;53.262;10.424;2024-01-15T13:50:06;1.98;;;1.13;;
83513;SDS011;73447;53.262;10.424;2024-01-15T13:52:32;2.13;;;1.20;;
83513;SDS011;73447;53.262;10.424;2024-01-15T13:54:57;1.40;;;0.88;;
83513;SDS011;73447;53.262;10.424;2024-01-15T13:57:23;1.40;;;1.00;;
83513;SDS011;73447;53.262;10.424;2024-01-15T13:59:48;4.57;;;1.70;;
83513;SDS011;73447;53.262;10.424;2024-01-15T14:02:14;2.15;;;1.10;;
83513;SDS011;73447;53.262;10.424;2024-01-15T14:04:40;2.28;;;1.17;;
83513;SDS011;73447;53.262;10.424;2024-01-15T14:07:06;1.85;;;1.33;;
83513;SDS011;73447;53.262;10.424;2024-01-15T14:09:32;1.20;;;1.10;;
83513;SDS011;73447;53.262;10.424;2024-01-15T14:11:57;2.42;;;1.35;;
83513;SDS011;73447;53.262;10.424;2024-01-15T14:14:23;2.78;;;1.60;;
83513;SDS011;73447;53.262;10.424;2024-01-15T14:16:49;1.58;;;1.00;;
83513;SDS011;73447;53.262;10.424;2024-01-15T14:19:14;1.73;;;1.50;;
83513;SDS011;73447;53.262;10.424;2024-01-15T14:21:40;3.03;;;1.40;;
83513;SDS011;73447;53.262;10.424;2024-01-15T14:24:05;2.03;;;1.33;;
83513;SDS011;73447;53.262;10.424;2024-01-15T14:26:31;1.92;;;1.10;;
83513;SDS011;73447;53.262;10.424;2024-01-15T14:28:57;1.80;;;1.52;;
83513;SDS011;73447;53.262;10.424;2024-01-15T14:31:23;1.40;;;1.30;;
83513;SDS011;73447;53.262;10.424;2024-01-15T14:33:51;1.85;;;1.60;;
83513;SDS011;73447;53.262;10.424;2024-01-15T14:36:17;1.45;;;1.35;;
83513;SDS011;73447;53.262;10.424;2024-01-15T14:38:42;1.58;;;1.42;;
83513;SDS011;73447;53.262;10.424;2024-01-15T14:41:07;1.63;;;1.27;;
83513;SDS011;73447;53.262;10.424;2024-01-15T14:43:33;1.98;;;1.50;;
83513;SDS011;73447;53.262;10.424;2024-01-15T14:45:58;1.75;;;1.40;;
83513;SDS011;73447;53.262;10.424;2024-01-15T14:48:24;2.88;;;2.10;;
83513;SDS011;73447;53.262;10.424;2024-01-15T14:50:50;4.00;;;2.28;;